sensor_id;sensor_type;location;lat;lon;timestamp;P1;durP1;ratioP1;P2;durP2;ratioP2
1140;SDS011;559;48.628;8.924;2022-11-20T00:00:56;74.07;;;69.38;;
1140;SDS011;559;48.628;8.924;2022-11-20T00:03:23;76.28;;;71.75;;
1140;SDS011;559;48.628;8.924;2022-11-20T00:05:50;73.45;;;69.05;;
1140;SDS011;559;48.628;8.924;2022-11-20T00:08:18;71.60;;;67.38;;
1140;SDS011;559;48.628;8.924;2022-11-20T00:10:45;73.55;;;68.65;;
1140;SDS011;559;48.628;8.924;2022-11-20T00:13:12;72.00;;;67.70;;
1140;SDS011;559;48.628;8.924;2022-11-20T00:15:38;69.40;;;65.28;;
1140;SDS011;559;48.628;8.924;2022-11-20T00:18:05;71.45;;;67.03;;
1140;SDS011;559;48.628;8.924;2022-11-20T00:20:35;67.72;;;63.42;;
1140;SDS011;559;48.628;8.924;2022-11-20T00:23:02;75.53;;;71.03;;
1140;SDS011;559;48.628;8.924;2022-11-20T00:25:30;71.85;;;67.68;;
1140;SDS011;559;48.628;8.924;2022-11-20T00:27:56;70.40;;;66.22;;
1140;SDS011;559;48.628;8.924;2022-11-20T00:30:24;69.32;;;65.25;;
1140;SDS011;559;48.628;8.924;2022-11-20T00:32:51;71.47;;;67.07;;
1140;SDS011;559;48.628;8.924;2022-11-20T00:35:17;70.25;;;66.05;;
1140;SDS011;559;48.628;8.924;2022-11-20T00:37:44;65.55;;;61.47;;
1140;SDS011;559;48.628;8.924;2022-11-20T00:40:11;67.05;;;63.08;;
1140;SDS011;559;48.628;8.924;2022-11-20T00:42:43;68.70;;;64.47;;
1140;SDS011;559;48.628;8.924;2022-11-20T00:45:12;65.25;;;61.25;;
1140;SDS011;559;48.628;8.924;2022-11-20T00:47:40;67.32;;;63.03;;
1140;SDS011;559;48.628;8.924;2022-11-20T00:50:08;67.63;;;63.60;;
1140;SDS011;559;48.628;8.924;2022-11-20T00:52:35;71.15;;;66.78;;
1140;SDS011;559;48.628;8.924;2022-11-20T00:55:02;69.32;;;65.20;;
1140;SDS011;559;48.628;8.924;2022-11-20T00:57:29;69.32;;;65.32;;
1140;SDS011;559;48.628;8.924;2022-11-20T00:59:58;64.40;;;60.60;;
1140;SDS011;559;48.628;8.924;2022-11-20T01:02:25;66.30;;;62.50;;
1140;SDS011;559;48.628;8.924;2022-11-20T01:04:51;64.97;;;61.25;;
1140;SDS011;559;48.628;8.924;2022-11-20T01:07:21;62.63;;;58.78;;
1140;SDS011;559;48.628;8.924;2022-11-20T01:09:48;63.38;;;59.78;;
1140;SDS011;559;48.628;8.924;2022-11-20T01:12:14;61.47;;;57.70;;
1140;SDS011;559;48.628;8.924;2022-11-20T01:14:41;66.18;;;62.28;;
1140;SDS011;559;48.628;8.924;2022-11-20T01:17:09;67.32;;;62.92;;
1140;SDS011;559;48.628;8.924;2022-11-20T01:19:36;64.88;;;61.10;;
1140;SDS011;559;48.628;8.924;2022-11-20T01:22:03;64.47;;;60.47;;
1140;SDS011;559;48.628;8.924;2022-11-20T01:24:30;66.90;;;63.00;;
1140;SDS011;559;48.628;8.924;2022-11-20T01:26:56;66.97;;;63.08;;
1140;SDS011;559;48.628;8.924;2022-11-20T01:29:23;66.63;;;62.83;;
1140;SDS011;559;48.628;8.924;2022-11-20T01:31:50;68.13;;;64.18;;
1140;SDS011;559;48.628;8.924;2022-11-20T01:34:19;64.63;;;61.13;;
1140;SDS011;559;48.628;8.924;2022-11-20T01:36:47;65.40;;;61.80;;
1140;SDS011;559;48.628;8.924;2022-11-20T01:39:15;65.53;;;61.90;;
1140;SDS011;559;48.628;8.924;2022-11-20T01:41:43;65.60;;;61.90;;
1140;SDS011;559;48.628;8.924;2022-11-20T01:47:16;67.47;;;63.67;;
1140;SDS011;559;48.628;8.924;2022-11-20T01:49:46;67.60;;;63.70;;
1140;SDS011;559;48.628;8.924;2022-11-20T01:52:16;67.28;;;63.47;;
1140;SDS011;559;48.628;8.924;2022-11-20T01:54:45;69.75;;;65.65;;
1140;SDS011;559;48.628;8.924;2022-11-20T01:57:14;69.50;;;65.50;;
1140;SDS011;559;48.628;8.924;2022-11-20T01:59:44;68.55;;;64.30;;
1140;SDS011;559;48.628;8.924;2022-11-20T02:02:15;72.00;;;67.80;;
1140;SDS011;559;48.628;8.924;2022-11-20T02:04:42;71.25;;;67.07;;
1140;SDS011;559;48.628;8.924;2022-11-20T02:07:10;70.45;;;66.25;;
1140;SDS011;559;48.628;8.924;2022-11-20T02:09:37;68.72;;;64.72;;
1140;SDS011;559;48.628;8.924;2022-11-20T02:12:04;68.88;;;64.82;;
1140;SDS011;559;48.628;8.924;2022-11-20T02:14:51;69.97;;;65.75;;
1140;SDS011;559;48.628;8.924;2022-11-20T02:17:17;67.93;;;63.93;;
1140;SDS011;559;48.628;8.924;2022-11-20T02:19:44;66.28;;;62.17;;
1140;SDS011;559;48.628;8.924;2022-11-20T02:22:13;72.55;;;68.35;;
1140;SDS011;559;48.628;8.924;2022-11-20T02:24:42;68.13;;;63.85;;
1140;SDS011;559;48.628;8.924;2022-11-20T02:27:14;66.53;;;62.45;;
1140;SDS011;559;48.628;8.924;2022-11-20T02:29:46;66.90;;;62.65;;
1140;SDS011;559;48.628;8.924;2022-11-20T02:32:19;68.50;;;64.32;;
1140;SDS011;559;48.628;8.924;2022-11-20T02:34:46;68.80;;;64.70;;
1140;SDS011;559;48.628;8.924;2022-11-20T02:37:12;65.28;;;61.30;;
1140;SDS011;559;48.628;8.924;2022-11-20T02:39:40;71.90;;;67.72;;
1140;SDS011;559;48.628;8.924;2022-11-20T02:42:09;67.35;;;63.13;;
1140;SDS011;559;48.628;8.924;2022-11-20T02:44:36;67.13;;;63.13;;
1140;SDS011;559;48.628;8.924;2022-11-20T02:47:02;66.60;;;62.40;;
1140;SDS011;559;48.628;8.924;2022-11-20T02:49:29;69.68;;;65.47;;
1140;SDS011;559;48.628;8.924;2022-11-20T02:51:56;71.03;;;66.82;;
1140;SDS011;559;48.628;8.924;2022-11-20T02:54:22;69.18;;;64.97;;
1140;SDS011;559;48.628;8.924;2022-11-20T02:56:51;74.90;;;70.18;;
1140;SDS011;559;48.628;8.924;2022-11-20T02:59:17;70.82;;;66.55;;
1140;SDS011;559;48.628;8.924;2022-11-20T03:01:44;70.20;;;66.03;;
1140;SDS011;559;48.628;8.924;2022-11-20T03:04:11;71.78;;;67.47;;
1140;SDS011;559;48.628;8.924;2022-11-20T03:06:37;71.10;;;66.70;;
1140;SDS011;559;48.628;8.924;2022-11-20T03:09:04;69.95;;;65.75;;
1140;SDS011;559;48.628;8.924;2022-11-20T03:11:31;69.82;;;65.65;;
1140;SDS011;559;48.628;8.924;2022-11-20T03:13:58;72.18;;;67.90;;
1140;SDS011;559;48.628;8.924;2022-11-20T03:16:28;74.82;;;70.43;;
1140;SDS011;559;48.628;8.924;2022-11-20T03:18:54;72.05;;;67.75;;
1140;SDS011;559;48.628;8.924;2022-11-20T03:21:21;72.47;;;68.13;;
1140;SDS011;559;48.628;8.924;2022-11-20T03:23:50;71.60;;;67.20;;
1140;SDS011;559;48.628;8.924;2022-11-20T03:26:18;71.82;;;67.40;;
1140;SDS011;559;48.628;8.924;2022-11-20T03:28:46;78.28;;;73.68;;
1140;SDS011;559;48.628;8.924;2022-11-20T03:31:16;83.05;;;78.15;;
1140;SDS011;559;48.628;8.924;2022-11-20T03:33:44;79.85;;;75.30;;
1140;SDS011;559;48.628;8.924;2022-11-20T03:36:11;72.10;;;67.75;;
1140;SDS011;559;48.628;8.924;2022-11-20T03:38:39;70.10;;;65.70;;
1140;SDS011;559;48.628;8.924;2022-11-20T03:41:06;67.68;;;63.45;;
1140;SDS011;559;48.628;8.924;2022-11-20T03:43:34;67.90;;;63.78;;
1140;SDS011;559;48.628;8.924;2022-11-20T03:46:01;72.03;;;67.82;;
1140;SDS011;559;48.628;8.924;2022-11-20T03:48:30;72.68;;;68.47;;
1140;SDS011;559;48.628;8.924;2022-11-20T03:51:06;70.43;;;66.28;;
1140;SDS011;559;48.628;8.924;2022-11-20T03:53:34;73.22;;;68.93;;
1140;SDS011;559;48.628;8.924;2022-11-20T03:56:01;73.20;;;68.80;;
1140;SDS011;559;48.628;8.924;2022-11-20T03:58:28;72.55;;;68.25;;
1140;SDS011;559;48.628;8.924;2022-11-20T04:00:54;69.55;;;65.45;;
1140;SDS011;559;48.628;8.924;2022-11-20T04:03:21;67.35;;;63.25;;
1140;SDS011;559;48.628;8.924;2022-11-20T04:05:49;70.35;;;66.25;;
1140;SDS011;559;48.628;8.924;2022-11-20T04:08:16;69.05;;;64.95;;
1140;SDS011;559;48.628;8.924;2022-11-20T04:10:42;67.20;;;63.00;;
1140;SDS011;559;48.628;8.924;2022-11-20T04:13:09;62.55;;;58.75;;
1140;SDS011;559;48.628;8.924;2022-11-20T04:15:36;64.55;;;59.92;;
1140;SDS011;559;48.628;8.924;2022-11-20T04:18:03;62.80;;;58.80;;
1140;SDS011;559;48.628;8.924;2022-11-20T04:20:30;61.45;;;57.65;;
1140;SDS011;559;48.628;8.924;2022-11-20T04:22:59;63.30;;;59.33;;
1140;SDS011;559;48.628;8.924;2022-11-20T04:25:27;63.83;;;60.00;;
1140;SDS011;559;48.628;8.924;2022-11-20T04:27:55;61.72;;;57.67;;
1140;SDS011;559;48.628;8.924;2022-11-20T04:30:21;62.05;;;58.25;;
1140;SDS011;559;48.628;8.924;2022-11-20T04:32:48;62.13;;;58.22;;
1140;SDS011;559;48.628;8.924;2022-11-20T04:35:15;61.20;;;57.30;;
1140;SDS011;559;48.628;8.924;2022-11-20T04:37:41;64.82;;;60.92;;
1140;SDS011;559;48.628;8.924;2022-11-20T04:40:11;67.55;;;63.65;;
1140;SDS011;559;48.628;8.924;2022-11-20T04:42:38;62.60;;;58.92;;
1140;SDS011;559;48.628;8.924;2022-11-20T04:45:05;64.93;;;61.20;;
1140;SDS011;559;48.628;8.924;2022-11-20T04:47:32;62.40;;;58.60;;
1140;SDS011;559;48.628;8.924;2022-11-20T04:49:59;63.00;;;59.40;;
1140;SDS011;559;48.628;8.924;2022-11-20T04:52:25;63.65;;;59.95;;
1140;SDS011;559;48.628;8.924;2022-11-20T04:54:52;68.47;;;64.65;;
1140;SDS011;559;48.628;8.924;2022-11-20T04:57:21;66.47;;;62.58;;
1140;SDS011;559;48.628;8.924;2022-11-20T04:59:47;65.20;;;61.40;;
1140;SDS011;559;48.628;8.924;2022-11-20T05:02:14;62.30;;;58.60;;
1140;SDS011;559;48.628;8.924;2022-11-20T05:04:41;58.97;;;55.53;;
1140;SDS011;559;48.628;8.924;2022-11-20T05:07:07;61.78;;;58.08;;
1140;SDS011;559;48.628;8.924;2022-11-20T05:09:34;60.30;;;56.70;;
1140;SDS011;559;48.628;8.924;2022-11-20T05:12:01;60.45;;;56.85;;
1140;SDS011;559;48.628;8.924;2022-11-20T05:14:29;60.83;;;57.25;;
1140;SDS011;559;48.628;8.924;2022-11-20T05:16:56;60.58;;;56.88;;
1140;SDS011;559;48.628;8.924;2022-11-20T05:19:22;60.13;;;56.60;;
1140;SDS011;559;48.628;8.924;2022-11-20T05:21:49;59.80;;;56.30;;
1140;SDS011;559;48.628;8.924;2022-11-20T05:24:16;61.33;;;57.75;;
1140;SDS011;559;48.628;8.924;2022-11-20T05:26:42;62.00;;;58.50;;
1140;SDS011;559;48.628;8.924;2022-11-20T05:29:10;61.45;;;57.95;;
1140;SDS011;559;48.628;8.924;2022-11-20T05:31:39;61.08;;;57.47;;
1140;SDS011;559;48.628;8.924;2022-11-20T05:34:07;64.40;;;60.60;;
1140;SDS011;559;48.628;8.924;2022-11-20T05:36:34;62.67;;;58.95;;
1140;SDS011;559;48.628;8.924;2022-11-20T05:39:03;62.60;;;58.90;;
1140;SDS011;559;48.628;8.924;2022-11-20T05:41:33;59.65;;;56.15;;
1140;SDS011;559;48.628;8.924;2022-11-20T05:44:00;62.15;;;58.55;;
1140;SDS011;559;48.628;8.924;2022-11-20T05:46:26;61.55;;;57.85;;
1140;SDS011;559;48.628;8.924;2022-11-20T05:48:55;59.70;;;56.20;;
1140;SDS011;559;48.628;8.924;2022-11-20T05:51:22;64.20;;;60.58;;
1140;SDS011;559;48.628;8.924;2022-11-20T05:53:48;62.25;;;58.55;;
1140;SDS011;559;48.628;8.924;2022-11-20T05:56:15;69.32;;;65.38;;
1140;SDS011;559;48.628;8.924;2022-11-20T05:58:44;60.28;;;56.63;;
1140;SDS011;559;48.628;8.924;2022-11-20T06:01:13;66.80;;;63.00;;
1140;SDS011;559;48.628;8.924;2022-11-20T06:03:41;62.88;;;59.17;;
1140;SDS011;559;48.628;8.924;2022-11-20T06:06:12;61.28;;;57.67;;
1140;SDS011;559;48.628;8.924;2022-11-20T06:08:39;61.95;;;58.33;;
1140;SDS011;559;48.628;8.924;2022-11-20T06:11:06;63.05;;;59.35;;
1140;SDS011;559;48.628;8.924;2022-11-20T06:13:34;64.68;;;60.90;;
1140;SDS011;559;48.628;8.924;2022-11-20T06:16:05;65.40;;;61.70;;
1140;SDS011;559;48.628;8.924;2022-11-20T06:18:32;64.75;;;61.08;;
1140;SDS011;559;48.628;8.924;2022-11-20T06:21:00;63.03;;;59.33;;
1140;SDS011;559;48.628;8.924;2022-11-20T06:23:32;64.80;;;61.00;;
1140;SDS011;559;48.628;8.924;2022-11-20T06:26:03;65.22;;;61.60;;
1140;SDS011;559;48.628;8.924;2022-11-20T06:28:33;65.03;;;61.33;;
1140;SDS011;559;48.628;8.924;2022-11-20T06:31:03;64.50;;;60.80;;
1140;SDS011;559;48.628;8.924;2022-11-20T06:33:31;65.68;;;61.55;;
1140;SDS011;559;48.628;8.924;2022-11-20T06:36:00;68.55;;;64.47;;
1140;SDS011;559;48.628;8.924;2022-11-20T06:38:31;66.78;;;62.97;;
1140;SDS011;559;48.628;8.924;2022-11-20T06:40:58;68.47;;;64.25;;
1140;SDS011;559;48.628;8.924;2022-11-20T06:43:25;71.47;;;67.43;;
1140;SDS011;559;48.628;8.924;2022-11-20T06:45:52;70.45;;;66.75;;
1140;SDS011;559;48.628;8.924;2022-11-20T06:48:19;68.45;;;64.75;;
1140;SDS011;559;48.628;8.924;2022-11-20T06:50:46;70.43;;;66.45;;
1140;SDS011;559;48.628;8.924;2022-11-20T06:53:12;69.35;;;65.55;;
1140;SDS011;559;48.628;8.924;2022-11-20T06:55:43;75.30;;;71.30;;
1140;SDS011;559;48.628;8.924;2022-11-20T06:58:10;73.75;;;69.57;;
1140;SDS011;559;48.628;8.924;2022-11-20T07:00:36;88.82;;;84.63;;
1140;SDS011;559;48.628;8.924;2022-11-20T07:03:03;74.82;;;71.00;;
1140;SDS011;559;48.628;8.924;2022-11-20T07:05:30;81.65;;;77.45;;
1140;SDS011;559;48.628;8.924;2022-11-20T07:07:56;81.40;;;77.50;;
1140;SDS011;559;48.628;8.924;2022-11-20T07:10:23;67.97;;;64.38;;
1140;SDS011;559;48.628;8.924;2022-11-20T07:12:51;70.95;;;67.18;;
1140;SDS011;559;48.628;8.924;2022-11-20T07:15:19;77.00;;;73.10;;
1140;SDS011;559;48.628;8.924;2022-11-20T07:17:46;78.13;;;74.22;;
1140;SDS011;559;48.628;8.924;2022-11-20T07:20:13;80.85;;;76.75;;
1140;SDS011;559;48.628;8.924;2022-11-20T07:22:40;77.13;;;73.13;;
1140;SDS011;559;48.628;8.924;2022-11-20T07:25:07;76.90;;;72.63;;
1140;SDS011;559;48.628;8.924;2022-11-20T07:27:35;81.00;;;76.80;;
1140;SDS011;559;48.628;8.924;2022-11-20T07:30:03;59.05;;;55.65;;
1140;SDS011;559;48.628;8.924;2022-11-20T07:32:31;63.65;;;59.92;;
1140;SDS011;559;48.628;8.924;2022-11-20T07:34:57;65.93;;;62.22;;
1140;SDS011;559;48.628;8.924;2022-11-20T07:37:24;66.30;;;62.58;;
1140;SDS011;559;48.628;8.924;2022-11-20T07:39:51;64.55;;;60.85;;
1140;SDS011;559;48.628;8.924;2022-11-20T07:42:17;66.65;;;62.65;;
1140;SDS011;559;48.628;8.924;2022-11-20T07:44:44;68.50;;;64.70;;
1140;SDS011;559;48.628;8.924;2022-11-20T07:47:12;66.13;;;62.33;;
1140;SDS011;559;48.628;8.924;2022-11-20T07:49:39;66.55;;;62.90;;
1140;SDS011;559;48.628;8.924;2022-11-20T07:52:05;67.60;;;63.70;;
1140;SDS011;559;48.628;8.924;2022-11-20T07:54:32;68.00;;;64.18;;
1140;SDS011;559;48.628;8.924;2022-11-20T07:56:58;63.97;;;60.17;;
1140;SDS011;559;48.628;8.924;2022-11-20T07:59:25;65.10;;;61.40;;
1140;SDS011;559;48.628;8.924;2022-11-20T08:01:52;63.67;;;60.08;;
1140;SDS011;559;48.628;8.924;2022-11-20T08:04:20;63.15;;;59.55;;
1140;SDS011;559;48.628;8.924;2022-11-20T08:06:48;66.28;;;62.60;;
1140;SDS011;559;48.628;8.924;2022-11-20T08:09:15;70.28;;;66.47;;
1140;SDS011;559;48.628;8.924;2022-11-20T08:11:41;66.20;;;62.60;;
1140;SDS011;559;48.628;8.924;2022-11-20T08:14:25;64.20;;;60.50;;
1140;SDS011;559;48.628;8.924;2022-11-20T08:16:52;63.15;;;59.25;;
1140;SDS011;559;48.628;8.924;2022-11-20T08:19:21;63.10;;;59.30;;
1140;SDS011;559;48.628;8.924;2022-11-20T08:21:47;64.28;;;60.67;;
1140;SDS011;559;48.628;8.924;2022-11-20T08:24:14;65.75;;;61.90;;
1140;SDS011;559;48.628;8.924;2022-11-20T08:26:41;64.82;;;61.10;;
1140;SDS011;559;48.628;8.924;2022-11-20T08:29:08;64.30;;;60.58;;
1140;SDS011;559;48.628;8.924;2022-11-20T08:31:34;65.20;;;61.50;;
1140;SDS011;559;48.628;8.924;2022-11-20T08:34:01;63.65;;;59.65;;
1140;SDS011;559;48.628;8.924;2022-11-20T08:36:32;62.22;;;58.72;;
1140;SDS011;559;48.628;8.924;2022-11-20T08:38:59;65.35;;;61.75;;
1140;SDS011;559;48.628;8.924;2022-11-20T08:41:26;63.65;;;60.05;;
1140;SDS011;559;48.628;8.924;2022-11-20T08:43:53;67.63;;;63.83;;
1140;SDS011;559;48.628;8.924;2022-11-20T08:46:21;64.35;;;60.83;;
1140;SDS011;559;48.628;8.924;2022-11-20T08:48:55;57.80;;;54.60;;
1140;SDS011;559;48.628;8.924;2022-11-20T08:51:21;56.45;;;53.05;;
1140;SDS011;559;48.628;8.924;2022-11-20T08:53:49;60.50;;;57.10;;
1140;SDS011;559;48.628;8.924;2022-11-20T08:56:16;56.15;;;52.85;;
1140;SDS011;559;48.628;8.924;2022-11-20T08:58:43;58.58;;;55.17;;
1140;SDS011;559;48.628;8.924;2022-11-20T09:01:10;57.63;;;54.33;;
1140;SDS011;559;48.628;8.924;2022-11-20T09:03:37;60.08;;;56.78;;
1140;SDS011;559;48.628;8.924;2022-11-20T09:06:05;58.10;;;54.80;;
1140;SDS011;559;48.628;8.924;2022-11-20T09:08:33;57.45;;;54.28;;
1140;SDS011;559;48.628;8.924;2022-11-20T09:11:02;57.05;;;53.80;;
1140;SDS011;559;48.628;8.924;2022-11-20T09:13:29;56.17;;;52.95;;
1140;SDS011;559;48.628;8.924;2022-11-20T09:15:56;53.60;;;50.42;;
1140;SDS011;559;48.628;8.924;2022-11-20T09:18:24;57.63;;;54.28;;
1140;SDS011;559;48.628;8.924;2022-11-20T09:20:55;56.58;;;53.38;;
1140;SDS011;559;48.628;8.924;2022-11-20T09:23:22;54.80;;;51.60;;
1140;SDS011;559;48.628;8.924;2022-11-20T09:26:02;57.72;;;54.33;;
1140;SDS011;559;48.628;8.924;2022-11-20T09:28:29;56.22;;;52.90;;
1140;SDS011;559;48.628;8.924;2022-11-20T09:30:57;60.50;;;56.80;;
1140;SDS011;559;48.628;8.924;2022-11-20T09:33:23;59.75;;;56.35;;
1140;SDS011;559;48.628;8.924;2022-11-20T09:35:50;58.75;;;55.35;;
1140;SDS011;559;48.628;8.924;2022-11-20T09:38:17;61.30;;;57.80;;
1140;SDS011;559;48.628;8.924;2022-11-20T09:40:45;59.88;;;56.47;;
1140;SDS011;559;48.628;8.924;2022-11-20T09:43:18;57.90;;;54.58;;
1140;SDS011;559;48.628;8.924;2022-11-20T09:48:29;57.08;;;53.83;;
1140;SDS011;559;48.628;8.924;2022-11-20T09:51:21;54.30;;;51.00;;
1140;SDS011;559;48.628;8.924;2022-11-20T09:53:58;57.20;;;53.90;;
1140;SDS011;559;48.628;8.924;2022-11-20T09:56:33;56.90;;;53.60;;
1140;SDS011;559;48.628;8.924;2022-11-20T09:59:02;57.85;;;54.45;;
1140;SDS011;559;48.628;8.924;2022-11-20T10:01:31;59.10;;;55.60;;
1140;SDS011;559;48.628;8.924;2022-11-20T10:04:00;56.63;;;53.03;;
1140;SDS011;559;48.628;8.924;2022-11-20T10:06:30;57.88;;;54.45;;
1140;SDS011;559;48.628;8.924;2022-11-20T10:09:06;58.08;;;54.67;;
1140;SDS011;559;48.628;8.924;2022-11-20T10:11:43;56.55;;;53.25;;
1140;SDS011;559;48.628;8.924;2022-11-20T10:14:18;58.35;;;54.75;;
1140;SDS011;559;48.628;8.924;2022-11-20T10:16:54;61.85;;;58.25;;
1140;SDS011;559;48.628;8.924;2022-11-20T10:19:30;60.10;;;56.60;;
1140;SDS011;559;48.628;8.924;2022-11-20T10:22:08;57.45;;;54.00;;
1140;SDS011;559;48.628;8.924;2022-11-20T10:24:43;57.65;;;54.15;;
1140;SDS011;559;48.628;8.924;2022-11-20T10:27:21;57.60;;;53.90;;
1140;SDS011;559;48.628;8.924;2022-11-20T10:30:06;57.13;;;53.53;;
1140;SDS011;559;48.628;8.924;2022-11-20T10:32:36;57.58;;;54.00;;
1140;SDS011;559;48.628;8.924;2022-11-20T10:35:05;62.90;;;59.20;;
1140;SDS011;559;48.628;8.924;2022-11-20T10:37:36;56.00;;;52.50;;
1140;SDS011;559;48.628;8.924;2022-11-20T10:40:05;57.60;;;54.10;;
1140;SDS011;559;48.628;8.924;2022-11-20T10:42:45;53.78;;;50.58;;
1140;SDS011;559;48.628;8.924;2022-11-20T10:45:19;54.15;;;50.95;;
1140;SDS011;559;48.628;8.924;2022-11-20T10:47:54;52.10;;;49.00;;
1140;SDS011;559;48.628;8.924;2022-11-20T10:50:21;50.65;;;47.40;;
1140;SDS011;559;48.628;8.924;2022-11-20T10:52:51;52.17;;;48.90;;
1140;SDS011;559;48.628;8.924;2022-11-20T10:55:25;52.60;;;49.20;;
1140;SDS011;559;48.628;8.924;2022-11-20T10:58:00;48.63;;;45.63;;
1140;SDS011;559;48.628;8.924;2022-11-20T11:00:33;48.60;;;45.60;;
1140;SDS011;559;48.628;8.924;2022-11-20T11:03:00;49.05;;;46.15;;
1140;SDS011;559;48.628;8.924;2022-11-20T11:05:36;49.80;;;46.90;;
1140;SDS011;559;48.628;8.924;2022-11-20T11:08:05;49.97;;;47.05;;
1140;SDS011;559;48.628;8.924;2022-11-20T11:10:37;48.15;;;45.30;;
1140;SDS011;559;48.628;8.924;2022-11-20T11:13:07;50.45;;;47.65;;
1140;SDS011;559;48.628;8.924;2022-11-20T11:15:40;51.47;;;48.58;;
1140;SDS011;559;48.628;8.924;2022-11-20T11:18:08;52.58;;;49.70;;
1140;SDS011;559;48.628;8.924;2022-11-20T11:20:36;51.63;;;48.83;;
1140;SDS011;559;48.628;8.924;2022-11-20T11:23:10;54.22;;;51.40;;
1140;SDS011;559;48.628;8.924;2022-11-20T11:25:56;48.55;;;46.05;;
1140;SDS011;559;48.628;8.924;2022-11-20T11:28:25;51.08;;;48.47;;
1140;SDS011;559;48.628;8.924;2022-11-20T11:30:54;52.15;;;49.08;;
1140;SDS011;559;48.628;8.924;2022-11-20T11:33:23;47.20;;;44.55;;
1140;SDS011;559;48.628;8.924;2022-11-20T11:35:51;47.15;;;44.85;;
1140;SDS011;559;48.628;8.924;2022-11-20T11:38:22;43.88;;;41.88;;
1140;SDS011;559;48.628;8.924;2022-11-20T11:40:55;46.67;;;44.58;;
1140;SDS011;559;48.628;8.924;2022-11-20T11:43:23;44.55;;;42.65;;
1140;SDS011;559;48.628;8.924;2022-11-20T11:46:14;46.17;;;44.17;;
1140;SDS011;559;48.628;8.924;2022-11-20T11:48:55;47.50;;;45.40;;
1140;SDS011;559;48.628;8.924;2022-11-20T11:51:26;47.88;;;45.88;;
1140;SDS011;559;48.628;8.924;2022-11-20T11:53:58;46.08;;;44.08;;
1140;SDS011;559;48.628;8.924;2022-11-20T11:56:25;47.90;;;46.03;;
1140;SDS011;559;48.628;8.924;2022-11-20T11:58:53;44.42;;;42.30;;
1140;SDS011;559;48.628;8.924;2022-11-20T12:01:27;41.55;;;39.75;;
1140;SDS011;559;48.628;8.924;2022-11-20T12:04:00;41.15;;;39.75;;
1140;SDS011;559;48.628;8.924;2022-11-20T12:06:32;40.45;;;39.05;;
1140;SDS011;559;48.628;8.924;2022-11-20T12:09:01;39.80;;;38.30;;
1140;SDS011;559;48.628;8.924;2022-11-20T12:11:31;40.78;;;39.13;;
1140;SDS011;559;48.628;8.924;2022-11-20T12:14:02;42.22;;;39.88;;
1140;SDS011;559;48.628;8.924;2022-11-20T12:16:37;39.95;;;38.38;;
1140;SDS011;559;48.628;8.924;2022-11-20T12:19:07;41.50;;;40.00;;
1140;SDS011;559;48.628;8.924;2022-11-20T12:21:52;42.50;;;40.90;;
1140;SDS011;559;48.628;8.924;2022-11-20T12:24:30;40.80;;;39.10;;
1140;SDS011;559;48.628;8.924;2022-11-20T12:27:27;42.00;;;40.40;;
1140;SDS011;559;48.628;8.924;2022-11-20T12:30:14;39.42;;;38.00;;
1140;SDS011;559;48.628;8.924;2022-11-20T12:32:47;40.13;;;38.63;;
1140;SDS011;559;48.628;8.924;2022-11-20T12:35:28;40.47;;;38.80;;
1140;SDS011;559;48.628;8.924;2022-11-20T12:38:07;37.85;;;36.35;;
1140;SDS011;559;48.628;8.924;2022-11-20T12:40:50;38.60;;;37.30;;
1140;SDS011;559;48.628;8.924;2022-11-20T12:43:22;37.40;;;36.10;;
1140;SDS011;559;48.628;8.924;2022-11-20T12:46:18;38.90;;;37.40;;
1140;SDS011;559;48.628;8.924;2022-11-20T12:49:01;34.70;;;33.60;;
1140;SDS011;559;48.628;8.924;2022-11-20T12:51:48;32.38;;;31.45;;
1140;SDS011;559;48.628;8.924;2022-11-20T12:54:34;36.10;;;34.85;;
1140;SDS011;559;48.628;8.924;2022-11-20T12:57:22;36.80;;;35.60;;
1140;SDS011;559;48.628;8.924;2022-11-20T13:00:01;35.83;;;34.60;;
1140;SDS011;559;48.628;8.924;2022-11-20T13:05:49;38.13;;;36.83;;
1140;SDS011;559;48.628;8.924;2022-11-20T13:08:20;36.38;;;35.15;;
1140;SDS011;559;48.628;8.924;2022-11-20T13:10:50;35.15;;;34.05;;
1140;SDS011;559;48.628;8.924;2022-11-20T13:13:25;36.25;;;34.95;;
1140;SDS011;559;48.628;8.924;2022-11-20T13:16:05;34.85;;;33.75;;
1140;SDS011;559;48.628;8.924;2022-11-20T13:18:35;35.00;;;33.80;;
1140;SDS011;559;48.628;8.924;2022-11-20T13:21:16;32.50;;;31.50;;
1140;SDS011;559;48.628;8.924;2022-11-20T13:23:48;28.58;;;27.77;;
1140;SDS011;559;48.628;8.924;2022-11-20T13:26:24;30.27;;;29.17;;
1140;SDS011;559;48.628;8.924;2022-11-20T13:28:59;28.17;;;27.27;;
1140;SDS011;559;48.628;8.924;2022-11-20T13:31:30;28.23;;;27.33;;
1140;SDS011;559;48.628;8.924;2022-11-20T13:34:02;30.85;;;29.75;;
1140;SDS011;559;48.628;8.924;2022-11-20T13:36:32;32.58;;;31.33;;
1140;SDS011;559;48.628;8.924;2022-11-20T13:39:01;30.05;;;29.25;;
1140;SDS011;559;48.628;8.924;2022-11-20T13:41:38;29.85;;;28.95;;
1140;SDS011;559;48.628;8.924;2022-11-20T13:44:27;32.55;;;31.48;;
1140;SDS011;559;48.628;8.924;2022-11-20T13:46:56;33.60;;;32.53;;
1140;SDS011;559;48.628;8.924;2022-11-20T13:49:25;34.97;;;33.75;;
1140;SDS011;559;48.628;8.924;2022-11-20T13:51:56;34.40;;;33.30;;
1140;SDS011;559;48.628;8.924;2022-11-20T13:54:38;35.40;;;34.20;;
1140;SDS011;559;48.628;8.924;2022-11-20T13:57:35;36.58;;;35.38;;
1140;SDS011;559;48.628;8.924;2022-11-20T14:00:11;36.58;;;35.28;;
1140;SDS011;559;48.628;8.924;2022-11-20T14:02:59;40.05;;;38.55;;
1140;SDS011;559;48.628;8.924;2022-11-20T14:05:28;40.22;;;38.75;;
1140;SDS011;559;48.628;8.924;2022-11-20T14:07:59;39.35;;;37.85;;
1140;SDS011;559;48.628;8.924;2022-11-20T14:10:30;42.55;;;40.75;;
1140;SDS011;559;48.628;8.924;2022-11-20T14:12:57;41.65;;;39.97;;
1140;SDS011;559;48.628;8.924;2022-11-20T14:15:25;43.20;;;41.45;;
1140;SDS011;559;48.628;8.924;2022-11-20T14:18:12;43.33;;;41.30;;
1140;SDS011;559;48.628;8.924;2022-11-20T14:20:40;42.15;;;40.20;;
1140;SDS011;559;48.628;8.924;2022-11-20T14:23:10;44.53;;;42.33;;
1140;SDS011;559;48.628;8.924;2022-11-20T14:25:41;45.55;;;43.45;;
1140;SDS011;559;48.628;8.924;2022-11-20T14:28:10;43.30;;;41.40;;
1140;SDS011;559;48.628;8.924;2022-11-20T14:30:39;44.40;;;42.40;;
1140;SDS011;559;48.628;8.924;2022-11-20T14:33:11;45.83;;;43.83;;
1140;SDS011;559;48.628;8.924;2022-11-20T14:35:40;44.50;;;42.50;;
1140;SDS011;559;48.628;8.924;2022-11-20T14:38:12;45.45;;;43.38;;
1140;SDS011;559;48.628;8.924;2022-11-20T14:40:42;43.40;;;41.50;;
1140;SDS011;559;48.628;8.924;2022-11-20T14:43:17;41.65;;;39.95;;
1140;SDS011;559;48.628;8.924;2022-11-20T14:46:00;42.78;;;40.95;;
1140;SDS011;559;48.628;8.924;2022-11-20T14:48:30;44.58;;;42.40;;
1140;SDS011;559;48.628;8.924;2022-11-20T14:51:25;45.13;;;42.63;;
1140;SDS011;559;48.628;8.924;2022-11-20T15:03:34;54.13;;;50.83;;
1140;SDS011;559;48.628;8.924;2022-11-20T15:06:02;49.50;;;46.70;;
1140;SDS011;559;48.628;8.924;2022-11-20T15:08:29;48.80;;;46.30;;
1140;SDS011;559;48.628;8.924;2022-11-20T15:10:55;53.50;;;50.40;;
1140;SDS011;559;48.628;8.924;2022-11-20T15:13:24;51.72;;;48.55;;
1140;SDS011;559;48.628;8.924;2022-11-20T15:15:53;52.25;;;49.38;;
1140;SDS011;559;48.628;8.924;2022-11-20T15:18:21;50.30;;;47.60;;
1140;SDS011;559;48.628;8.924;2022-11-20T15:20:51;53.00;;;49.70;;
1140;SDS011;559;48.628;8.924;2022-11-20T15:23:18;53.80;;;51.10;;
1140;SDS011;559;48.628;8.924;2022-11-20T15:25:45;56.42;;;53.30;;
1140;SDS011;559;48.628;8.924;2022-11-20T15:28:15;58.28;;;55.17;;
1140;SDS011;559;48.628;8.924;2022-11-20T15:30:43;56.15;;;53.35;;
1140;SDS011;559;48.628;8.924;2022-11-20T15:33:10;61.53;;;58.42;;
1140;SDS011;559;48.628;8.924;2022-11-20T15:35:37;60.20;;;57.20;;